createdAt,value
2019-03-01T00:00:20.872Z,62.80
2019-03-01T00:02:48.154Z,63.00
2019-03-01T00:05:44.465Z,63.80
2019-03-01T00:08:17.792Z,64.90
2019-03-01T00:11:35.742Z,64.70
2019-03-01T00:14:33.874Z,65.20
2019-03-01T00:17:30.354Z,65.00
2019-03-01T00:20:41.311Z,66.60
2019-03-01T00:23:58.407Z,66.50
2019-03-01T00:27:00.205Z,67.10
2019-03-01T00:30:22.023Z,66.90
2019-03-01T00:32:58.593Z,66.20
2019-03-01T00:36:10.718Z,65.90
2019-03-01T00:38:58.419Z,65.60
2019-03-01T00:41:54.557Z,65.80
2019-03-01T00:44:40.313Z,66.40
2019-03-01T00:47:07.726Z,66.90
2019-03-01T00:49:35.455Z,66.90
2019-03-01T00:52:02.995Z,67.10
2019-03-01T00:54:30.412Z,67.90
2019-03-01T00:56:57.838Z,68.20
2019-03-01T00:59:25.129Z,68.20
2019-03-01T01:01:52.607Z,69.10
2019-03-01T01:04:20.001Z,69.70
2019-03-01T01:06:47.334Z,70.70
2019-03-01T01:09:14.942Z,71.50
2019-03-01T01:11:42.676Z,71.90
2019-03-01T01:14:10.098Z,72.40
2019-03-01T01:16:37.440Z,73.40
2019-03-01T01:19:05.043Z,73.50
2019-03-01T01:21:32.343Z,73.70
2019-03-01T01:23:59.767Z,73.20
2019-03-01T01:26:27.427Z,72.90
2019-03-01T01:28:54.849Z,72.50
2019-03-01T01:31:22.140Z,72.10
2019-03-01T01:33:49.526Z,73.00
2019-03-01T01:36:16.941Z,72.20
2019-03-01T01:38:44.340Z,73.30
2019-03-01T01:41:11.766Z,74.10
2019-03-01T01:43:39.203Z,73.10
2019-03-01T01:46:06.939Z,72.60
2019-03-01T01:48:34.340Z,73.10
2019-03-01T01:51:01.648Z,73.10
2019-03-01T01:53:29.082Z,74.20
2019-03-01T01:55:56.483Z,74.70
2019-03-01T01:58:23.893Z,74.60
2019-03-01T02:00:51.223Z,74.50
2019-03-01T02:03:18.549Z,75.20
2019-03-01T02:05:46.029Z,75.80
2019-03-01T02:08:13.443Z,76.10
2019-03-01T02:10:40.915Z,75.50
2019-03-01T02:13:08.331Z,75.40
2019-03-01T02:15:35.709Z,76.10
2019-03-01T02:18:03.594Z,77.70
2019-03-01T02:20:30.903Z,77.70
2019-03-01T02:22:58.275Z,77.40
2019-03-01T02:25:25.559Z,78.10
2019-03-01T02:27:52.898Z,79.40
2019-03-01T02:30:22.584Z,79.80
2019-03-01T02:32:50.317Z,80.60
2019-03-01T02:35:19.837Z,81.80
2019-03-01T02:37:47.238Z,82.80
2019-03-01T02:40:15.324Z,82.90
2019-03-01T02:42:42.723Z,81.90
2019-03-01T02:45:12.025Z,83.60
2019-03-01T02:47:39.392Z,81.70
2019-03-01T02:50:07.555Z,82.20
2019-03-01T02:52:34.916Z,82.30
2019-03-01T02:55:02.345Z,80.80
2019-03-01T02:57:29.646Z,81.00
2019-03-01T02:59:57.351Z,81.10
2019-03-01T03:02:24.752Z,81.50
2019-03-01T03:04:52.057Z,81.50
2019-03-01T03:07:27.599Z,83.10
2019-03-01T03:09:55.069Z,84.20
2019-03-01T03:12:22.461Z,85.20
2019-03-01T03:14:49.905Z,85.80
2019-03-01T03:17:17.297Z,84.50
2019-03-01T03:19:44.720Z,85.00
2019-03-01T03:22:12.114Z,84.40
2019-03-01T03:24:39.538Z,85.00
2019-03-01T03:27:06.925Z,85.00
2019-03-01T03:29:34.390Z,85.10
2019-03-01T03:32:01.770Z,85.00
2019-03-01T03:34:29.462Z,84.80
2019-03-01T03:36:56.777Z,86.30
2019-03-01T03:39:24.074Z,86.70
2019-03-01T03:41:51.490Z,85.50
2019-03-01T03:44:19.010Z,85.70
2019-03-01T03:46:46.434Z,86.50
2019-03-01T03:49:13.878Z,85.90
2019-03-01T03:51:41.276Z,85.60
2019-03-01T03:54:08.659Z,85.70
2019-03-01T03:56:36.078Z,85.10
2019-03-01T03:59:03.748Z,85.00
2019-03-01T04:01:31.057Z,85.70
2019-03-01T04:03:58.354Z,87.00
2019-03-01T04:06:26.406Z,87.60
2019-03-01T04:08:53.833Z,88.00
2019-03-01T04:11:21.235Z,87.60
2019-03-01T04:13:48.551Z,87.10
2019-03-01T04:16:15.944Z,87.40
2019-03-01T04:18:43.346Z,87.30
2019-03-01T04:21:10.816Z,87.00
2019-03-01T04:23:38.198Z,86.90
2019-03-01T04:26:05.578Z,84.60
2019-03-01T04:28:33.034Z,84.80
2019-03-01T04:31:02.704Z,85.20
2019-03-01T04:33:30.536Z,86.10
2019-03-01T04:35:57.937Z,86.70
2019-03-01T04:38:25.292Z,85.90
2019-03-01T04:40:52.710Z,86.70
2019-03-01T04:43:20.000Z,86.40
2019-03-01T04:45:47.703Z,86.60
2019-03-01T04:48:15.281Z,87.50
2019-03-01T04:50:42.911Z,86.00
2019-03-01T04:53:10.310Z,85.10
2019-03-01T04:55:37.710Z,84.90
2019-03-01T04:58:05.003Z,85.50
2019-03-01T05:00:32.420Z,84.90
2019-03-01T05:03:00.196Z,84.70
2019-03-01T05:05:27.577Z,84.50
2019-03-01T05:07:56.018Z,86.00
2019-03-01T05:10:23.412Z,85.80
2019-03-01T05:12:53.802Z,86.60
2019-03-01T05:15:22.391Z,86.50
2019-03-01T05:17:52.568Z,88.10
2019-03-01T05:20:20.013Z,88.10
2019-03-01T05:22:47.770Z,88.40
2019-03-01T05:25:15.400Z,88.80
2019-03-01T05:27:42.790Z,88.70
2019-03-01T05:30:11.301Z,89.40
2019-03-01T05:32:39.106Z,89.20
2019-03-01T05:35:06.823Z,89.50
2019-03-01T05:37:34.241Z,88.20
2019-03-01T05:40:04.383Z,89.20
2019-03-01T05:42:31.950Z,89.00
2019-03-01T05:45:00.568Z,88.70
2019-03-01T05:47:28.379Z,88.50
2019-03-01T05:49:55.683Z,87.40
2019-03-01T05:52:23.071Z,88.00
2019-03-01T05:54:50.458Z,86.80
2019-03-01T05:57:17.870Z,87.10
2019-03-01T05:59:45.286Z,86.60
2019-03-01T06:02:38.152Z,87.80
2019-03-01T06:05:15.028Z,86.10
2019-03-01T06:08:23.840Z,85.20
2019-03-01T06:11:01.635Z,86.00
2019-03-01T06:13:54.540Z,87.20
2019-03-01T06:16:45.625Z,88.40
2019-03-01T06:19:33.538Z,88.90
2019-03-01T06:22:38.434Z,89.10
2019-03-01T06:25:22.433Z,89.80
2019-03-01T06:28:05.969Z,89.20
2019-03-01T06:31:27.526Z,89.60
2019-03-01T06:34:23.357Z,89.50
2019-03-01T06:37:20.827Z,90.10
2019-03-01T06:40:52.241Z,89.80
2019-03-01T06:44:03.098Z,90.40
2019-03-01T06:47:36.479Z,90.10
2019-03-01T06:50:24.538Z,91.50
2019-03-01T06:52:51.872Z,92.10
2019-03-01T06:55:52.719Z,92.00
2019-03-01T06:58:24.883Z,92.00
2019-03-01T07:00:56.703Z,92.40
2019-03-01T07:03:24.339Z,92.60
2019-03-01T07:05:52.067Z,91.90
2019-03-01T07:08:19.460Z,91.70
2019-03-01T07:10:46.844Z,92.10
2019-03-01T07:13:14.252Z,91.30
2019-03-01T07:15:41.655Z,90.90
2019-03-01T07:18:09.058Z,89.10
2019-03-01T07:20:36.502Z,89.50
2019-03-01T07:23:03.901Z,89.20
2019-03-01T07:25:31.228Z,89.80
2019-03-01T07:27:58.910Z,88.10
2019-03-01T07:30:26.310Z,87.00
2019-03-01T07:32:53.686Z,88.40
2019-03-01T07:35:21.339Z,88.80
2019-03-01T07:37:48.732Z,89.40
2019-03-01T07:40:16.123Z,88.40
2019-03-01T07:42:43.845Z,87.60
2019-03-01T07:45:11.265Z,87.20
2019-03-01T07:47:38.692Z,88.10
2019-03-01T07:50:06.823Z,87.50
2019-03-01T07:52:34.217Z,87.10
2019-03-01T07:55:01.529Z,86.40
2019-03-01T07:57:31.469Z,85.40
2019-03-01T07:59:58.457Z,84.40
2019-03-01T08:02:25.877Z,85.10
2019-03-01T08:04:53.519Z,84.30
2019-03-01T08:07:23.619Z,84.70
2019-03-01T08:09:50.172Z,85.60
2019-03-01T08:12:17.630Z,85.90
2019-03-01T08:14:45.049Z,86.10
2019-03-01T08:17:12.487Z,85.10
2019-03-01T08:19:39.888Z,85.80
2019-03-01T08:22:07.197Z,86.20
2019-03-01T08:24:34.624Z,85.70
2019-03-01T08:27:01.946Z,85.10
2019-03-01T08:29:30.627Z,84.80
2019-03-01T08:31:58.795Z,84.80
2019-03-01T08:34:26.238Z,84.80
2019-03-01T08:36:53.547Z,85.80
2019-03-01T08:39:21.000Z,86.80
2019-03-01T08:41:48.395Z,86.30
2019-03-01T08:44:19.261Z,85.90
2019-03-01T08:46:46.505Z,85.70
2019-03-01T08:49:14.012Z,86.80
2019-03-01T08:51:41.334Z,86.50
2019-03-01T08:54:08.683Z,85.90
2019-03-01T08:56:36.077Z,85.50
2019-03-01T08:59:03.517Z,85.10
2019-03-01T09:01:31.791Z,83.20
2019-03-01T09:04:02.449Z,84.30
2019-03-01T09:06:29.841Z,84.10
2019-03-01T09:08:57.536Z,84.90
2019-03-01T09:11:25.026Z,83.90
2019-03-01T09:13:52.469Z,83.80
2019-03-01T09:16:19.909Z,84.10
2019-03-01T09:18:50.126Z,84.50
2019-03-01T09:21:17.268Z,85.60
2019-03-01T09:23:47.991Z,85.20
2019-03-01T09:26:16.717Z,85.00
2019-03-01T09:28:43.545Z,85.90
2019-03-01T09:31:10.999Z,85.20
2019-03-01T09:33:38.422Z,86.10
2019-03-01T09:36:14.474Z,85.80
2019-03-01T09:38:42.848Z,85.10
2019-03-01T09:41:11.258Z,85.30
2019-03-01T09:43:38.681Z,84.80
2019-03-01T09:46:06.001Z,84.40
2019-03-01T09:48:33.762Z,83.70
2019-03-01T09:51:01.237Z,84.00
2019-03-01T09:53:30.672Z,84.20
2019-03-01T09:56:00.007Z,84.00
2019-03-01T09:58:27.080Z,85.10
2019-03-01T10:01:04.309Z,86.10
2019-03-01T10:03:31.746Z,87.10
2019-03-01T10:05:59.052Z,87.90
2019-03-01T10:08:26.519Z,87.40
2019-03-01T10:10:53.985Z,87.90
2019-03-01T10:13:21.434Z,86.20
2019-03-01T10:15:48.855Z,86.40
2019-03-01T10:18:16.359Z,86.00
2019-03-01T10:20:43.910Z,85.60
2019-03-01T10:23:11.367Z,86.30
2019-03-01T10:25:38.790Z,86.40
2019-03-01T10:28:06.220Z,85.80
2019-03-01T10:30:33.851Z,86.60
2019-03-01T10:33:01.334Z,87.10
2019-03-01T10:35:28.778Z,86.30
2019-03-01T10:37:56.204Z,86.60
2019-03-01T10:40:23.648Z,85.10
2019-03-01T10:42:51.085Z,86.60
2019-03-01T10:45:20.937Z,86.90
2019-03-01T10:47:48.380Z,86.30
2019-03-01T10:50:15.757Z,87.00
2019-03-01T10:52:43.175Z,87.20
2019-03-01T10:55:12.478Z,86.10
2019-03-01T10:57:39.886Z,87.00
2019-03-01T11:00:20.949Z,87.20
2019-03-01T11:02:48.677Z,86.70
2019-03-01T11:05:16.097Z,87.30
2019-03-01T11:07:44.006Z,85.70
2019-03-01T11:10:14.073Z,85.70
2019-03-01T11:12:41.495Z,85.00
2019-03-01T11:15:09.959Z,84.60
2019-03-01T11:17:37.393Z,85.00
2019-03-01T11:20:04.943Z,85.80
2019-03-01T11:22:32.416Z,86.60
2019-03-01T11:24:59.866Z,85.60
2019-03-01T11:27:27.207Z,85.40
2019-03-01T11:29:54.701Z,84.90
2019-03-01T11:32:22.113Z,84.90
2019-03-01T11:34:49.548Z,85.10
2019-03-01T11:37:17.074Z,85.30
2019-03-01T11:39:44.480Z,85.70
2019-03-01T11:42:11.893Z,85.30
2019-03-01T11:44:39.352Z,85.20
2019-03-01T11:47:06.757Z,85.70
2019-03-01T11:49:34.206Z,86.50
2019-03-01T11:52:01.539Z,86.50
2019-03-01T11:54:29.001Z,87.20
2019-03-01T11:56:56.431Z,86.60
2019-03-01T11:59:23.880Z,85.90
2019-03-01T12:01:51.294Z,84.80
2019-03-01T12:04:18.773Z,83.80
2019-03-01T12:06:46.226Z,83.10
2019-03-01T12:09:13.998Z,82.90
2019-03-01T12:11:41.448Z,82.50
2019-03-01T12:14:08.911Z,81.70
2019-03-01T12:16:36.326Z,81.80
2019-03-01T12:19:04.066Z,81.40
2019-03-01T12:21:31.477Z,84.20
2019-03-01T12:23:58.870Z,84.00
2019-03-01T12:26:26.207Z,83.30
2019-03-01T12:28:53.615Z,82.40
2019-03-01T12:31:21.076Z,81.10
2019-03-01T12:33:48.519Z,81.20
2019-03-01T12:36:15.939Z,81.20
2019-03-01T12:38:43.492Z,81.30
2019-03-01T12:41:11.791Z,81.20
2019-03-01T12:43:39.202Z,80.90
2019-03-01T12:46:06.609Z,80.30
2019-03-01T12:48:34.059Z,80.70
2019-03-01T12:51:01.859Z,82.50
2019-03-01T12:53:29.385Z,82.80
2019-03-01T12:55:56.843Z,82.60
2019-03-01T12:58:24.290Z,81.90
2019-03-01T13:00:52.349Z,81.60
2019-03-01T13:03:19.777Z,80.90
2019-03-01T13:05:47.182Z,80.90
2019-03-01T13:08:15.784Z,78.40
2019-03-01T13:10:43.870Z,78.10
2019-03-01T13:13:11.334Z,75.90
2019-03-01T13:15:38.760Z,76.40
2019-03-01T13:18:06.226Z,77.10
2019-03-01T13:20:36.653Z,75.90
2019-03-01T13:23:04.997Z,76.60
2019-03-01T13:25:32.247Z,76.30
2019-03-01T13:27:59.730Z,76.90
2019-03-01T13:30:27.153Z,77.40
2019-03-01T13:32:55.174Z,77.50
2019-03-01T13:35:26.108Z,77.10
2019-03-01T13:37:54.890Z,76.90
2019-03-01T13:40:24.550Z,76.60
2019-03-01T13:42:51.756Z,76.00
2019-03-01T13:45:19.642Z,76.50
2019-03-01T13:47:47.096Z,75.20
2019-03-01T13:50:15.389Z,74.20
2019-03-01T13:52:42.937Z,72.10
2019-03-01T13:55:10.347Z,71.30
2019-03-01T13:57:37.804Z,70.90
2019-03-01T14:00:06.419Z,68.20
2019-03-01T14:02:33.883Z,67.90
2019-03-01T14:05:01.354Z,67.70
2019-03-01T14:07:29.118Z,67.70
2019-03-01T14:09:56.584Z,69.70
2019-03-01T14:12:24.350Z,68.40
2019-03-01T14:14:52.183Z,70.00
2019-03-01T14:17:21.119Z,70.70
2019-03-01T14:19:49.067Z,70.90
2019-03-01T14:22:16.541Z,71.80
2019-03-01T14:24:44.015Z,73.00
2019-03-01T14:27:11.513Z,73.30
2019-03-01T14:29:38.962Z,75.50
2019-03-01T14:32:06.364Z,75.20
2019-03-01T14:34:34.097Z,75.10
2019-03-01T14:37:01.587Z,73.60
2019-03-01T14:39:29.109Z,75.10
2019-03-01T14:41:56.545Z,75.60
2019-03-01T14:44:23.909Z,76.10
2019-03-01T14:46:52.889Z,75.80
2019-03-01T14:49:21.875Z,76.20
2019-03-01T14:51:50.405Z,74.80
2019-03-01T14:54:18.084Z,75.00
2019-03-01T14:56:52.447Z,74.50
2019-03-01T14:59:38.025Z,75.20
2019-03-01T15:02:39.800Z,74.80
2019-03-01T15:05:06.457Z,74.20
2019-03-01T15:07:36.300Z,74.50
2019-03-01T15:10:04.756Z,74.40
2019-03-01T15:12:32.383Z,73.60
2019-03-01T15:15:26.423Z,73.80
2019-03-01T15:17:57.013Z,73.20
2019-03-01T15:20:24.596Z,73.10
2019-03-01T15:22:52.083Z,74.10
2019-03-01T15:25:19.539Z,73.50
2019-03-01T15:27:47.420Z,73.90
2019-03-01T15:30:14.998Z,72.40
2019-03-01T15:32:42.479Z,72.30
2019-03-01T15:35:10.052Z,72.50
2019-03-01T15:37:37.555Z,72.20
2019-03-01T15:40:07.271Z,72.60
2019-03-01T15:42:34.538Z,73.30
2019-03-01T15:45:05.049Z,73.70
2019-03-01T15:47:31.214Z,73.50
2019-03-01T15:49:58.725Z,73.10
2019-03-01T15:52:26.189Z,73.50
2019-03-01T15:54:53.636Z,73.00
2019-03-01T15:57:30.406Z,73.40
2019-03-01T15:59:57.840Z,74.00
2019-03-01T16:02:25.644Z,73.60
2019-03-01T16:04:53.128Z,73.40
2019-03-01T16:07:20.839Z,73.80
2019-03-01T16:09:48.327Z,74.20
2019-03-01T16:12:15.728Z,73.30
2019-03-01T16:14:44.123Z,72.80
2019-03-01T16:17:11.904Z,73.40
2019-03-01T16:19:39.395Z,73.10
2019-03-01T16:22:07.190Z,72.70
2019-03-01T16:24:34.638Z,73.10
2019-03-01T16:27:02.010Z,73.90
2019-03-01T16:29:29.432Z,74.50
2019-03-01T16:31:56.887Z,75.20
2019-03-01T16:34:24.227Z,74.80
2019-03-01T16:36:54.080Z,74.30
2019-03-01T16:39:23.820Z,74.90
2019-03-01T16:41:51.908Z,75.50
2019-03-01T16:44:19.565Z,74.90
2019-03-01T16:46:47.108Z,75.20
2019-03-01T16:49:14.533Z,75.20
2019-03-01T16:51:42.198Z,74.90
2019-03-01T16:54:15.287Z,75.40
2019-03-01T16:56:39.443Z,76.00
2019-03-01T16:59:07.288Z,75.80
2019-03-01T17:01:34.912Z,76.70
2019-03-01T17:04:02.442Z,76.40
2019-03-01T17:06:29.887Z,76.40
2019-03-01T17:08:57.347Z,76.90
2019-03-01T17:11:24.819Z,77.80
2019-03-01T17:13:52.584Z,78.90
2019-03-01T17:16:20.497Z,79.00
2019-03-01T17:18:49.448Z,79.00
2019-03-01T17:21:17.183Z,79.60
2019-03-01T17:23:44.688Z,80.30
2019-03-01T17:26:12.122Z,80.00
2019-03-01T17:28:39.659Z,80.90
2019-03-01T17:31:07.126Z,80.90
2019-03-01T17:33:34.531Z,81.50
2019-03-01T17:36:01.989Z,81.60
2019-03-01T17:38:29.437Z,81.50
2019-03-01T17:40:56.855Z,81.50
2019-03-01T17:43:25.934Z,81.60
2019-03-01T17:45:54.389Z,81.20
2019-03-01T17:48:23.198Z,81.60
2019-03-01T17:50:50.554Z,80.40
2019-03-01T17:53:18.067Z,80.80
2019-03-01T17:55:45.595Z,81.20
2019-03-01T17:58:15.189Z,81.80
2019-03-01T18:00:42.996Z,81.60
2019-03-01T18:03:10.434Z,81.70
2019-03-01T18:05:40.614Z,80.70
2019-03-01T18:08:07.465Z,81.70
2019-03-01T18:10:34.915Z,82.30
2019-03-01T18:13:02.400Z,81.50
2019-03-01T18:15:29.867Z,81.60
2019-03-01T18:17:57.336Z,81.90
2019-03-01T18:20:26.619Z,81.60
2019-03-01T18:22:54.520Z,80.70
2019-03-01T18:25:26.122Z,80.80
2019-03-01T18:27:53.029Z,81.80
2019-03-01T18:30:21.453Z,81.10
2019-03-01T18:32:49.048Z,81.90
2019-03-01T18:35:16.517Z,82.10
2019-03-01T18:37:44.028Z,81.10
2019-03-01T18:40:13.454Z,81.50
2019-03-01T18:42:40.967Z,81.10
2019-03-01T18:45:11.738Z,82.10
2019-03-01T18:47:39.225Z,82.60
2019-03-01T18:50:14.219Z,82.10
2019-03-01T18:52:41.745Z,81.60
2019-03-01T18:55:09.393Z,81.70
2019-03-01T18:57:38.620Z,81.00
2019-03-01T19:00:17.648Z,82.30
2019-03-01T19:02:45.896Z,82.80
2019-03-01T19:05:13.456Z,83.90
2019-03-01T19:07:41.094Z,83.90
2019-03-01T19:10:09.259Z,84.30
2019-03-01T19:12:36.762Z,83.80
2019-03-01T19:15:04.854Z,83.40
2019-03-01T19:17:32.420Z,84.30
2019-03-01T19:20:01.983Z,83.60
2019-03-01T19:22:29.692Z,83.60
2019-03-01T19:24:57.411Z,83.70
2019-03-01T19:27:25.067Z,83.80
2019-03-01T19:29:52.794Z,82.10
2019-03-01T19:32:23.579Z,82.40
2019-03-01T19:34:52.781Z,83.10
2019-03-01T19:37:20.155Z,83.60
2019-03-01T19:39:47.695Z,84.30
2019-03-01T19:42:15.258Z,83.10
2019-03-01T19:44:43.064Z,83.30
2019-03-01T19:47:10.757Z,82.70
2019-03-01T19:49:40.257Z,83.30
2019-03-01T19:52:09.347Z,83.60
2019-03-01T19:54:37.565Z,85.10
2019-03-01T19:57:05.174Z,85.10
2019-03-01T19:59:33.119Z,84.30
2019-03-01T20:02:00.733Z,85.50
2019-03-01T20:04:28.337Z,85.10
2019-03-01T20:06:56.561Z,83.90
2019-03-01T20:09:25.177Z,83.30
2019-03-01T20:11:55.464Z,83.10
2019-03-01T20:14:23.331Z,83.70
2019-03-01T20:16:50.995Z,84.80
2019-03-01T20:19:20.884Z,84.60
2019-03-01T20:21:48.129Z,85.10
2019-03-01T20:24:15.710Z,84.70
2019-03-01T20:26:43.293Z,84.70
2019-03-01T20:29:11.485Z,84.60
2019-03-01T20:31:40.489Z,85.20
2019-03-01T20:34:08.448Z,85.70
2019-03-01T20:36:36.827Z,85.30
2019-03-01T20:39:04.772Z,85.00
2019-03-01T20:41:32.302Z,83.40
2019-03-01T20:44:01.110Z,83.40
2019-03-01T20:46:28.711Z,83.30
2019-03-01T20:49:00.643Z,83.90
2019-03-01T20:51:28.021Z,82.90
2019-03-01T20:53:56.305Z,82.10
2019-03-01T20:56:24.079Z,81.90
2019-03-01T20:58:51.757Z,82.30
2019-03-01T21:01:19.378Z,81.50
2019-03-01T21:03:47.233Z,81.70
2019-03-01T21:06:15.450Z,82.40
2019-03-01T21:08:43.159Z,81.80
2019-03-01T21:11:10.702Z,82.00
2019-03-01T21:13:38.253Z,81.90
2019-03-01T21:16:06.166Z,82.00
2019-03-01T21:18:34.182Z,81.70
2019-03-01T21:21:02.885Z,81.40
2019-03-01T21:23:30.401Z,80.90
2019-03-01T21:25:58.039Z,81.10
2019-03-01T21:28:25.906Z,81.20
2019-03-01T21:30:55.657Z,81.70
2019-03-01T21:33:24.061Z,83.60
2019-03-01T21:35:53.161Z,84.20
2019-03-01T21:38:20.816Z,83.90
2019-03-01T21:40:48.279Z,84.10
2019-03-01T21:43:15.945Z,83.60
2019-03-01T21:45:43.851Z,83.00
2019-03-01T21:48:11.453Z,83.90
2019-03-01T21:50:42.429Z,83.20
2019-03-01T21:53:08.653Z,85.30
2019-03-01T21:55:36.114Z,85.60
2019-03-01T21:58:06.472Z,85.40
2019-03-01T22:00:34.740Z,83.90
2019-03-01T22:03:02.251Z,83.90
2019-03-01T22:05:29.700Z,83.90
2019-03-01T22:07:57.155Z,83.20
2019-03-01T22:10:24.676Z,83.70
2019-03-01T22:12:52.121Z,83.20
2019-03-01T22:15:21.559Z,82.40
2019-03-01T22:17:50.314Z,82.20
2019-03-01T22:20:18.509Z,81.90
2019-03-01T22:22:45.988Z,82.80
2019-03-01T22:25:13.597Z,83.20
2019-03-01T22:27:42.198Z,82.10
2019-03-01T22:30:12.250Z,82.10
2019-03-01T22:32:42.317Z,82.40
2019-03-01T22:35:09.605Z,80.80
2019-03-01T22:37:37.103Z,82.10
2019-03-01T22:40:05.798Z,81.40
2019-03-01T22:42:33.206Z,81.40
2019-03-01T22:45:00.628Z,82.00
2019-03-01T22:47:28.129Z,82.40
2019-03-01T22:49:55.970Z,82.30
2019-03-01T22:52:26.706Z,82.00
2019-03-01T22:54:52.712Z,81.70
2019-03-01T23:02:44.378Z,81.00
2019-03-01T23:12:30.699Z,81.10
2019-03-01T23:22:12.640Z,81.50
2019-03-01T23:29:08.912Z,81.60
